sensor_id;sensor_type;location;lat;lon;timestamp;pressure;altitude;pressure_sealevel;temperature;humidity
10978;BME280;5542;48.272;10.794;2023-02-03T00:01:20;96789.03;;;4.07;81.88
10978;BME280;5542;48.272;10.794;2023-02-03T00:03:47;96796.88;;;4.15;82.03
10978;BME280;5542;48.272;10.794;2023-02-03T00:06:14;96799.97;;;4.19;81.95
10978;BME280;5542;48.272;10.794;2023-02-03T00:08:40;96800.44;;;4.06;82.48
10978;BME280;5542;48.272;10.794;2023-02-03T00:11:07;96806.28;;;4.08;82.50
10978;BME280;5542;48.272;10.794;2023-02-03T00:13:34;96803.69;;;4.16;81.75
10978;BME280;5542;48.272;10.794;2023-02-03T00:16:01;96791.00;;;4.21;81.72
10978;BME280;5542;48.272;10.794;2023-02-03T00:18:29;96793.28;;;4.16;81.80
10978;BME280;5542;48.272;10.794;2023-02-03T00:20:55;96785.13;;;4.11;82.12
10978;BME280;5542;48.272;10.794;2023-02-03T00:23:22;96789.72;;;4.09;82.44
10978;BME280;5542;48.272;10.794;2023-02-03T00:25:50;96786.94;;;4.19;82.06
10978;BME280;5542;48.272;10.794;2023-02-03T00:28:16;96779.63;;;4.14;81.83
10978;BME280;5542;48.272;10.794;2023-02-03T00:30:43;96780.75;;;4.20;81.71
10978;BME280;5542;48.272;10.794;2023-02-03T00:33:10;96781.72;;;4.10;81.95
10978;BME280;5542;48.272;10.794;2023-02-03T00:35:38;96780.59;;;4.13;81.73
10978;BME280;5542;48.272;10.794;2023-02-03T00:38:05;96781.56;;;4.12;81.57
10978;BME280;5542;48.272;10.794;2023-02-03T00:40:31;96782.38;;;4.21;81.86
10978;BME280;5542;48.272;10.794;2023-02-03T00:42:58;96779.94;;;4.19;81.04
10978;BME280;5542;48.272;10.794;2023-02-03T00:45:24;96771.63;;;4.16;81.13
10978;BME280;5542;48.272;10.794;2023-02-03T00:47:51;96764.47;;;4.18;81.08
10978;BME280;5542;48.272;10.794;2023-02-03T00:50:18;96778.31;;;4.18;81.19
10978;BME280;5542;48.272;10.794;2023-02-03T00:52:46;96776.34;;;4.20;81.32
10978;BME280;5542;48.272;10.794;2023-02-03T00:55:12;96778.97;;;4.20;80.84
10978;BME280;5542;48.272;10.794;2023-02-03T00:57:39;96784.16;;;4.20;81.03
10978;BME280;5542;48.272;10.794;2023-02-03T01:00:07;96777.34;;;4.19;81.00
10978;BME280;5542;48.272;10.794;2023-02-03T01:02:34;96785.47;;;4.16;81.14
10978;BME280;5542;48.272;10.794;2023-02-03T01:05:00;96786.63;;;4.14;80.65
10978;BME280;5542;48.272;10.794;2023-02-03T01:07:30;96798.16;;;4.19;80.51
10978;BME280;5542;48.272;10.794;2023-02-03T01:09:58;96790.34;;;4.19;80.98
10978;BME280;5542;48.272;10.794;2023-02-03T01:12:24;96816.72;;;4.16;81.05
10978;BME280;5542;48.272;10.794;2023-02-03T01:14:51;96807.28;;;4.15;80.77
10978;BME280;5542;48.272;10.794;2023-02-03T01:17:17;96809.56;;;4.10;81.37
10978;BME280;5542;48.272;10.794;2023-02-03T01:19:44;96808.25;;;4.06;81.28
10978;BME280;5542;48.272;10.794;2023-02-03T01:22:10;96810.53;;;4.09;81.11
10978;BME280;5542;48.272;10.794;2023-02-03T01:24:37;96813.28;;;4.16;81.32
10978;BME280;5542;48.272;10.794;2023-02-03T01:27:05;96815.41;;;4.20;80.90
10978;BME280;5542;48.272;10.794;2023-02-03T01:29:32;96810.22;;;4.20;81.16
10978;BME280;5542;48.272;10.794;2023-02-03T01:31:58;96808.09;;;4.16;80.67
10978;BME280;5542;48.272;10.794;2023-02-03T01:34:25;96802.22;;;4.05;81.63
10978;BME280;5542;48.272;10.794;2023-02-03T01:36:51;96800.59;;;4.04;82.04
10978;BME280;5542;48.272;10.794;2023-02-03T01:39:18;96799.94;;;4.10;81.26
10978;BME280;5542;48.272;10.794;2023-02-03T01:41:44;96800.91;;;4.18;81.32
10978;BME280;5542;48.272;10.794;2023-02-03T01:44:41;96799.31;;;4.25;81.14
10978;BME280;5542;48.272;10.794;2023-02-03T01:47:16;96796.53;;;4.18;80.96
10978;BME280;5542;48.272;10.794;2023-02-03T01:49:47;96787.75;;;4.19;81.00
10978;BME280;5542;48.272;10.794;2023-02-03T01:52:15;96773.75;;;4.20;80.94
10978;BME280;5542;48.272;10.794;2023-02-03T01:54:44;96768.22;;;4.07;81.32
10978;BME280;5542;48.272;10.794;2023-02-03T01:57:16;96766.75;;;4.13;81.42
10978;BME280;5542;48.272;10.794;2023-02-03T01:59:47;96768.69;;;4.27;80.99
10978;BME280;5542;48.272;10.794;2023-02-03T02:02:15;96776.69;;;4.25;80.76
10978;BME280;5542;48.272;10.794;2023-02-03T02:04:47;96778.31;;;4.18;80.98
10978;BME280;5542;48.272;10.794;2023-02-03T02:07:16;96763.84;;;4.24;80.94
10978;BME280;5542;48.272;10.794;2023-02-03T02:09:43;96754.22;;;4.24;80.74
10978;BME280;5542;48.272;10.794;2023-02-03T02:12:10;96761.72;;;4.27;80.17
10978;BME280;5542;48.272;10.794;2023-02-03T02:14:38;96767.41;;;4.23;80.28
10978;BME280;5542;48.272;10.794;2023-02-03T02:17:11;96761.53;;;4.13;80.76
10978;BME280;5542;48.272;10.794;2023-02-03T02:20:04;96758.63;;;4.16;80.61
10978;BME280;5542;48.272;10.794;2023-02-03T02:22:43;96753.91;;;4.19;80.31
10978;BME280;5542;48.272;10.794;2023-02-03T02:25:39;96760.72;;;4.12;80.47
10978;BME280;5542;48.272;10.794;2023-02-03T02:34:08;96779.94;;;4.19;80.57
10978;BME280;5542;48.272;10.794;2023-02-03T02:36:44;96777.34;;;4.19;80.06
10978;BME280;5542;48.272;10.794;2023-02-03T02:39:21;96759.75;;;4.21;79.71
10978;BME280;5542;48.272;10.794;2023-02-03T02:41:55;96755.53;;;4.20;79.95
10978;BME280;5542;48.272;10.794;2023-02-03T02:44:28;96761.06;;;4.33;79.35
10978;BME280;5542;48.272;10.794;2023-02-03T02:46:57;96753.72;;;4.21;79.56
10978;BME280;5542;48.272;10.794;2023-02-03T02:49:29;96748.38;;;4.14;79.93
10978;BME280;5542;48.272;10.794;2023-02-03T02:52:01;96744.78;;;4.31;79.80
10978;BME280;5542;48.272;10.794;2023-02-03T02:54:30;96741.03;;;4.34;79.38
10978;BME280;5542;48.272;10.794;2023-02-03T02:57:00;96748.53;;;4.29;79.36
10978;BME280;5542;48.272;10.794;2023-02-03T02:59:28;96750.94;;;4.22;79.32
10978;BME280;5542;48.272;10.794;2023-02-03T03:01:55;96752.91;;;4.20;79.28
10978;BME280;5542;48.272;10.794;2023-02-03T03:04:24;96752.59;;;4.15;79.50
10978;BME280;5542;48.272;10.794;2023-02-03T03:06:57;96753.59;;;4.14;80.10
10978;BME280;5542;48.272;10.794;2023-02-03T03:09:28;96747.69;;;4.12;79.83
10978;BME280;5542;48.272;10.794;2023-02-03T03:12:02;96725.41;;;4.18;79.57
10978;BME280;5542;48.272;10.794;2023-02-03T03:14:31;96733.22;;;4.18;79.25
10978;BME280;5542;48.272;10.794;2023-02-03T03:17:01;96737.16;;;4.14;79.46
10978;BME280;5542;48.272;10.794;2023-02-03T03:19:31;96742.53;;;4.04;80.04
10978;BME280;5542;48.272;10.794;2023-02-03T03:22:03;96738.09;;;4.13;80.17
10978;BME280;5542;48.272;10.794;2023-02-03T03:24:33;96743.66;;;4.09;79.97
10978;BME280;5542;48.272;10.794;2023-02-03T03:27:03;96753.72;;;4.21;79.46
10978;BME280;5542;48.272;10.794;2023-02-03T03:29:36;96753.09;;;4.19;79.24
10978;BME280;5542;48.272;10.794;2023-02-03T03:32:06;96751.44;;;4.18;80.04
10978;BME280;5542;48.272;10.794;2023-02-03T03:34:33;96746.91;;;4.20;79.91
10978;BME280;5542;48.272;10.794;2023-02-03T03:37:06;96752.59;;;4.23;79.17
10978;BME280;5542;48.272;10.794;2023-02-03T03:39:44;96751.44;;;4.26;79.36
10978;BME280;5542;48.272;10.794;2023-02-03T03:42:18;96746.72;;;4.21;79.20
10978;BME280;5542;48.272;10.794;2023-02-03T03:44:50;96738.41;;;4.18;79.62
10978;BME280;5542;48.272;10.794;2023-02-03T03:47:23;96727.53;;;4.14;79.38
10978;BME280;5542;48.272;10.794;2023-02-03T03:49:52;96723.28;;;4.21;79.32
10978;BME280;5542;48.272;10.794;2023-02-03T03:52:24;96738.09;;;4.21;79.60
10978;BME280;5542;48.272;10.794;2023-02-03T03:54:53;96729.97;;;4.16;79.62
10978;BME280;5542;48.272;10.794;2023-02-03T03:57:24;96753.25;;;4.09;79.48
10978;BME280;5542;48.272;10.794;2023-02-03T03:59:52;96750.16;;;4.22;78.93
10978;BME280;5542;48.272;10.794;2023-02-03T04:02:20;96750.50;;;4.19;78.84
10978;BME280;5542;48.272;10.794;2023-02-03T04:04:48;96741.19;;;4.16;79.05
10978;BME280;5542;48.272;10.794;2023-02-03T04:07:16;96747.06;;;4.10;79.38
10978;BME280;5542;48.272;10.794;2023-02-03T04:09:45;96740.88;;;4.11;79.77
10978;BME280;5542;48.272;10.794;2023-02-03T04:12:17;96747.06;;;4.26;78.87
10978;BME280;5542;48.272;10.794;2023-02-03T04:14:47;96752.59;;;4.07;78.91
10978;BME280;5542;48.272;10.794;2023-02-03T04:17:13;96754.88;;;4.18;79.22
10978;BME280;5542;48.272;10.794;2023-02-03T04:19:40;96760.91;;;4.10;79.16
10978;BME280;5542;48.272;10.794;2023-02-03T04:22:06;96782.53;;;4.11;79.15
10978;BME280;5542;48.272;10.794;2023-02-03T04:24:33;96783.31;;;4.03;79.14
10978;BME280;5542;48.272;10.794;2023-02-03T04:27:01;96778.97;;;4.04;79.48
10978;BME280;5542;48.272;10.794;2023-02-03T04:29:28;96785.94;;;4.11;78.95
10978;BME280;5542;48.272;10.794;2023-02-03T04:31:54;96774.72;;;4.11;79.18
10978;BME280;5542;48.272;10.794;2023-02-03T04:34:21;96778.63;;;3.99;79.37
10978;BME280;5542;48.272;10.794;2023-02-03T04:36:47;96773.09;;;4.02;79.39
10978;BME280;5542;48.272;10.794;2023-02-03T04:39:14;96779.63;;;4.14;78.66
10978;BME280;5542;48.272;10.794;2023-02-03T04:41:40;96781.56;;;4.12;79.02
10978;BME280;5542;48.272;10.794;2023-02-03T04:44:08;96786.44;;;3.99;79.33
10978;BME280;5542;48.272;10.794;2023-02-03T04:46:35;96779.78;;;4.04;78.75
10978;BME280;5542;48.272;10.794;2023-02-03T04:49:01;96785.59;;;3.98;79.43
10978;BME280;5542;48.272;10.794;2023-02-03T04:51:28;96772.91;;;4.03;79.05
10978;BME280;5542;48.272;10.794;2023-02-03T04:53:55;96775.34;;;3.97;79.42
10978;BME280;5542;48.272;10.794;2023-02-03T04:56:21;96757.28;;;4.03;79.15
10978;BME280;5542;48.272;10.794;2023-02-03T04:58:48;96772.91;;;4.03;79.53
10978;BME280;5542;48.272;10.794;2023-02-03T05:01:16;96774.69;;;3.87;80.02
10978;BME280;5542;48.272;10.794;2023-02-03T05:03:42;96772.94;;;3.95;80.50
10978;BME280;5542;48.272;10.794;2023-02-03T05:06:09;96776.03;;;3.99;79.84
10978;BME280;5542;48.272;10.794;2023-02-03T05:08:35;96790.81;;;3.98;79.72
10978;BME280;5542;48.272;10.794;2023-02-03T05:11:02;96792.94;;;4.11;79.12
10978;BME280;5542;48.272;10.794;2023-02-03T05:13:29;96801.09;;;4.00;79.56
10978;BME280;5542;48.272;10.794;2023-02-03T05:15:56;96806.28;;;4.00;79.71
10978;BME280;5542;48.272;10.794;2023-02-03T05:18:24;96778.63;;;4.07;79.12
10978;BME280;5542;48.272;10.794;2023-02-03T05:20:50;96782.84;;;4.00;79.25
10978;BME280;5542;48.272;10.794;2023-02-03T05:23:17;96765.59;;;3.91;79.58
10978;BME280;5542;48.272;10.794;2023-02-03T05:25:43;96770.31;;;3.87;80.12
10978;BME280;5542;48.272;10.794;2023-02-03T05:28:10;96764.13;;;3.88;79.96
10978;BME280;5542;48.272;10.794;2023-02-03T05:30:37;96750.63;;;4.01;78.97
10978;BME280;5542;48.272;10.794;2023-02-03T05:33:03;96746.72;;;3.97;79.08
10978;BME280;5542;48.272;10.794;2023-02-03T05:35:31;96743.31;;;3.96;79.18
10978;BME280;5542;48.272;10.794;2023-02-03T05:37:58;96744.13;;;3.97;79.62
10978;BME280;5542;48.272;10.794;2023-02-03T05:40:25;96740.38;;;3.91;79.56
10978;BME280;5542;48.272;10.794;2023-02-03T05:43:09;96757.13;;;3.89;79.55
10978;BME280;5542;48.272;10.794;2023-02-03T05:45:36;96767.88;;;3.94;79.31
10978;BME280;5542;48.272;10.794;2023-02-03T05:48:03;96774.69;;;3.87;79.57
10978;BME280;5542;48.272;10.794;2023-02-03T05:50:33;96761.53;;;3.88;79.60
10978;BME280;5542;48.272;10.794;2023-02-03T05:53:00;96744.13;;;3.89;79.72
10978;BME280;5542;48.272;10.794;2023-02-03T05:55:28;96746.88;;;4.03;78.95
10978;BME280;5542;48.272;10.794;2023-02-03T05:57:55;96735.81;;;3.93;79.11
10978;BME280;5542;48.272;10.794;2023-02-03T06:00:22;96737.28;;;3.88;79.32
10978;BME280;5542;48.272;10.794;2023-02-03T06:02:53;96721.69;;;3.96;79.00
10978;BME280;5542;48.272;10.794;2023-02-03T06:05:20;96738.91;;;3.72;79.70
10978;BME280;5542;48.272;10.794;2023-02-03T06:07:48;96751.91;;;3.72;79.39
10978;BME280;5542;48.272;10.794;2023-02-03T06:10:16;96747.03;;;3.77;79.86
10978;BME280;5542;48.272;10.794;2023-02-03T06:12:42;96733.22;;;3.85;79.49
10978;BME280;5542;48.272;10.794;2023-02-03T06:15:10;96753.41;;;3.91;79.38
10978;BME280;5542;48.272;10.794;2023-02-03T06:17:36;96755.47;;;3.79;79.61
10978;BME280;5542;48.272;10.794;2023-02-03T06:20:03;96750.47;;;3.86;79.52
10978;BME280;5542;48.272;10.794;2023-02-03T06:22:30;96761.84;;;3.77;79.70
10978;BME280;5542;48.272;10.794;2023-02-03T06:24:58;96768.81;;;3.84;79.38
10978;BME280;5542;48.272;10.794;2023-02-03T06:27:24;96767.19;;;3.83;78.99
10978;BME280;5542;48.272;10.794;2023-02-03T06:29:51;96764.94;;;3.80;79.58
10978;BME280;5542;48.272;10.794;2023-02-03T06:32:17;96765.88;;;3.79;79.71
10978;BME280;5542;48.272;10.794;2023-02-03T06:34:44;96760.34;;;3.74;80.09
10978;BME280;5542;48.272;10.794;2023-02-03T06:37:10;96755.66;;;3.78;79.84
10978;BME280;5542;48.272;10.794;2023-02-03T06:39:37;96743.31;;;3.88;79.37
10978;BME280;5542;48.272;10.794;2023-02-03T06:42:05;96744.44;;;3.94;79.10
10978;BME280;5542;48.272;10.794;2023-02-03T06:44:32;96745.91;;;3.96;79.14
10978;BME280;5542;48.272;10.794;2023-02-03T06:46:59;96755.22;;;3.99;78.85
10978;BME280;5542;48.272;10.794;2023-02-03T06:49:27;96770.00;;;3.90;79.05
10978;BME280;5542;48.272;10.794;2023-02-03T06:51:54;96778.13;;;3.87;79.54
10978;BME280;5542;48.272;10.794;2023-02-03T06:54:20;96779.59;;;3.90;79.54
10978;BME280;5542;48.272;10.794;2023-02-03T06:56:47;96786.22;;;3.84;79.59
10978;BME280;5542;48.272;10.794;2023-02-03T06:59:15;96773.72;;;3.88;79.71
10978;BME280;5542;48.272;10.794;2023-02-03T07:01:41;96755.19;;;3.82;79.48
10978;BME280;5542;48.272;10.794;2023-02-03T07:04:08;96759.25;;;3.85;79.54
10978;BME280;5542;48.272;10.794;2023-02-03T07:06:34;96734.03;;;3.85;79.34
10978;BME280;5542;48.272;10.794;2023-02-03T07:09:03;96742.81;;;3.93;79.19
10978;BME280;5542;48.272;10.794;2023-02-03T07:11:30;96739.09;;;3.95;78.76
10978;BME280;5542;48.272;10.794;2023-02-03T07:13:57;96747.03;;;3.94;78.66
10978;BME280;5542;48.272;10.794;2023-02-03T07:16:25;96749.81;;;3.92;78.83
10978;BME280;5542;48.272;10.794;2023-02-03T07:18:52;96743.47;;;3.87;78.87
10978;BME280;5542;48.272;10.794;2023-02-03T07:21:19;96738.91;;;3.80;78.77
10978;BME280;5542;48.272;10.794;2023-02-03T07:23:46;96731.09;;;3.89;78.89
10978;BME280;5542;48.272;10.794;2023-02-03T07:26:14;96709.97;;;3.92;78.76
10978;BME280;5542;48.272;10.794;2023-02-03T07:28:40;96719.06;;;3.96;78.20
10978;BME280;5542;48.272;10.794;2023-02-03T07:31:07;96710.28;;;3.97;78.11
10978;BME280;5542;48.272;10.794;2023-02-03T07:33:36;96715.81;;;4.02;78.55
10978;BME280;5542;48.272;10.794;2023-02-03T07:36:04;96714.19;;;4.09;77.63
10978;BME280;5542;48.272;10.794;2023-02-03T07:38:31;96720.53;;;4.06;77.52
10978;BME280;5542;48.272;10.794;2023-02-03T07:40:58;96725.25;;;4.03;77.42
10978;BME280;5542;48.272;10.794;2023-02-03T07:43:24;96721.00;;;3.94;77.72
10978;BME280;5542;48.272;10.794;2023-02-03T07:45:51;96700.19;;;3.94;77.94
10978;BME280;5542;48.272;10.794;2023-02-03T07:48:17;96695.66;;;3.96;77.45
10978;BME280;5542;48.272;10.794;2023-02-03T07:50:46;96690.44;;;4.04;77.30
10978;BME280;5542;48.272;10.794;2023-02-03T07:53:13;96701.19;;;4.09;77.00
10978;BME280;5542;48.272;10.794;2023-02-03T07:55:39;96698.25;;;4.12;76.43
10978;BME280;5542;48.272;10.794;2023-02-03T07:58:06;96721.34;;;4.07;76.76
10978;BME280;5542;48.272;10.794;2023-02-03T08:00:33;96709.78;;;4.18;76.28
10978;BME280;5542;48.272;10.794;2023-02-03T08:03:00;96696.28;;;4.22;76.04
10978;BME280;5542;48.272;10.794;2023-02-03T08:05:27;96716.44;;;4.36;75.18
10978;BME280;5542;48.272;10.794;2023-02-03T08:07:55;96727.34;;;4.40;75.39
10978;BME280;5542;48.272;10.794;2023-02-03T08:10:23;96728.81;;;4.34;74.76
10978;BME280;5542;48.272;10.794;2023-02-03T08:12:52;96735.00;;;4.42;74.66
10978;BME280;5542;48.272;10.794;2023-02-03T08:15:19;96742.84;;;4.42;74.87
10978;BME280;5542;48.272;10.794;2023-02-03T08:17:45;96738.44;;;4.42;74.67
10978;BME280;5542;48.272;10.794;2023-02-03T08:20:12;96747.06;;;4.43;74.32
10978;BME280;5542;48.272;10.794;2023-02-03T08:22:38;96752.91;;;4.36;74.53
10978;BME280;5542;48.272;10.794;2023-02-03T08:25:07;96766.59;;;4.39;74.78
10978;BME280;5542;48.272;10.794;2023-02-03T08:27:34;96756.31;;;4.45;74.21
10978;BME280;5542;48.272;10.794;2023-02-03T08:30:01;96761.22;;;4.48;74.34
10978;BME280;5542;48.272;10.794;2023-02-03T08:32:27;96744.91;;;4.54;73.84
10978;BME280;5542;48.272;10.794;2023-02-03T08:34:54;96742.78;;;4.50;73.88
10978;BME280;5542;48.272;10.794;2023-02-03T08:37:22;96746.38;;;4.57;73.25
10978;BME280;5542;48.272;10.794;2023-02-03T08:39:50;96746.38;;;4.49;73.89
10978;BME280;5542;48.272;10.794;2023-02-03T08:42:18;96743.28;;;4.61;73.78
10978;BME280;5542;48.272;10.794;2023-02-03T08:44:44;96742.44;;;4.69;73.33
10978;BME280;5542;48.272;10.794;2023-02-03T08:47:11;96728.78;;;4.67;73.11
10978;BME280;5542;48.272;10.794;2023-02-03T08:49:38;96746.34;;;4.73;72.93
10978;BME280;5542;48.272;10.794;2023-02-03T08:52:06;96743.25;;;4.70;72.66
10978;BME280;5542;48.272;10.794;2023-02-03T08:54:32;96741.63;;;4.77;72.52
10978;BME280;5542;48.272;10.794;2023-02-03T08:56:59;96728.09;;;4.73;72.38
10978;BME280;5542;48.272;10.794;2023-02-03T08:59:27;96723.56;;;4.75;71.87
10978;BME280;5542;48.272;10.794;2023-02-03T09:01:54;96732.19;;;4.76;72.68
10978;BME280;5542;48.272;10.794;2023-02-03T09:04:24;96741.75;;;4.83;72.09
10978;BME280;5542;48.272;10.794;2023-02-03T09:06:51;96732.19;;;4.76;71.93
10978;BME280;5542;48.272;10.794;2023-02-03T09:09:19;96741.44;;;4.86;72.45
10978;BME280;5542;48.272;10.794;2023-02-03T09:11:45;96729.22;;;4.79;72.01
10978;BME280;5542;48.272;10.794;2023-02-03T09:14:12;96731.47;;;4.90;72.26
10978;BME280;5542;48.272;10.794;2023-02-03T09:16:40;96745.97;;;4.93;71.18
10978;BME280;5542;48.272;10.794;2023-02-03T09:19:07;96749.25;;;4.86;71.90
10978;BME280;5542;48.272;10.794;2023-02-03T09:21:34;96748.88;;;4.98;71.52
10978;BME280;5542;48.272;10.794;2023-02-03T09:24:01;96738.13;;;5.01;71.32
10978;BME280;5542;48.272;10.794;2023-02-03T09:26:28;96735.50;;;5.01;71.58
10978;BME280;5542;48.272;10.794;2023-02-03T09:28:55;96733.53;;;5.03;71.52
10978;BME280;5542;48.272;10.794;2023-02-03T09:31:21;96709.72;;;5.14;71.10
10978;BME280;5542;48.272;10.794;2023-02-03T09:33:49;96709.03;;;5.20;71.39
10978;BME280;5542;48.272;10.794;2023-02-03T09:36:16;96712.44;;;5.21;71.26
10978;BME280;5542;48.272;10.794;2023-02-03T09:38:42;96711.81;;;5.19;69.85
10978;BME280;5542;48.272;10.794;2023-02-03T09:41:18;96701.94;;;5.06;70.29
10978;BME280;5542;48.272;10.794;2023-02-03T09:43:51;96719.78;;;5.17;70.55
10978;BME280;5542;48.272;10.794;2023-02-03T09:46:22;96721.22;;;5.28;70.30
10978;BME280;5542;48.272;10.794;2023-02-03T09:48:54;96722.97;;;5.35;69.65
10978;BME280;5542;48.272;10.794;2023-02-03T09:51:25;96706.50;;;5.35;69.33
10978;BME280;5542;48.272;10.794;2023-02-03T09:53:56;96711.56;;;5.36;69.78
10978;BME280;5542;48.272;10.794;2023-02-03T09:56:26;96700.16;;;5.37;69.48
10978;BME280;5542;48.272;10.794;2023-02-03T09:58:55;96721.34;;;5.34;69.65
10978;BME280;5542;48.272;10.794;2023-02-03T10:01:22;96723.78;;;5.36;69.76
10978;BME280;5542;48.272;10.794;2023-02-03T10:03:57;96718.72;;;5.43;69.04
10978;BME280;5542;48.272;10.794;2023-02-03T10:06:30;96711.50;;;5.45;69.11
10978;BME280;5542;48.272;10.794;2023-02-03T10:09:12;96726.53;;;5.43;68.86
10978;BME280;5542;48.272;10.794;2023-02-03T10:11:51;96717.38;;;5.47;68.41
10978;BME280;5542;48.272;10.794;2023-02-03T10:14:32;96711.19;;;5.48;68.79
10978;BME280;5542;48.272;10.794;2023-02-03T10:17:14;96711.47;;;5.53;67.69
10978;BME280;5542;48.272;10.794;2023-02-03T10:19:50;96703.53;;;5.46;68.90
10978;BME280;5542;48.272;10.794;2023-02-03T10:22:22;96697.63;;;5.52;67.65
10978;BME280;5542;48.272;10.794;2023-02-03T10:24:54;96695.34;;;5.49;67.75
10978;BME280;5542;48.272;10.794;2023-02-03T10:27:24;96709.09;;;5.66;68.53
10978;BME280;5542;48.272;10.794;2023-02-03T10:29:55;96699.44;;;5.75;67.96
10978;BME280;5542;48.272;10.794;2023-02-03T10:32:25;96708.13;;;5.90;66.43
10978;BME280;5542;48.272;10.794;2023-02-03T10:34:54;96707.63;;;5.95;66.10
10978;BME280;5542;48.272;10.794;2023-02-03T10:37:25;96705.84;;;5.95;66.21
10978;BME280;5542;48.272;10.794;2023-02-03T10:39:53;96697.41;;;6.08;66.38
10978;BME280;5542;48.272;10.794;2023-02-03T10:42:21;96697.16;;;6.18;65.69
10978;BME280;5542;48.272;10.794;2023-02-03T10:44:50;96710.31;;;6.24;64.96
10978;BME280;5542;48.272;10.794;2023-02-03T10:47:26;96704.81;;;6.19;64.76
10978;BME280;5542;48.272;10.794;2023-02-03T10:50:02;96694.91;;;6.14;65.53
10978;BME280;5542;48.272;10.794;2023-02-03T10:52:30;96709.84;;;6.21;65.24
10978;BME280;5542;48.272;10.794;2023-02-03T10:54:58;96708.00;;;6.29;65.71
10978;BME280;5542;48.272;10.794;2023-02-03T10:57:27;96713.56;;;6.26;65.08
10978;BME280;5542;48.272;10.794;2023-02-03T11:00:05;96719.44;;;6.28;65.24
10978;BME280;5542;48.272;10.794;2023-02-03T11:02:32;96712.94;;;6.24;65.30
10978;BME280;5542;48.272;10.794;2023-02-03T11:05:17;96700.88;;;6.23;66.04
10978;BME280;5542;48.272;10.794;2023-02-03T11:07:45;96724.09;;;6.18;66.28
10978;BME280;5542;48.272;10.794;2023-02-03T11:10:26;96709.00;;;6.28;66.58
10978;BME280;5542;48.272;10.794;2023-02-03T11:13:10;96713.38;;;6.13;66.83
10978;BME280;5542;48.272;10.794;2023-02-03T11:15:37;96712.84;;;6.18;66.45
10978;BME280;5542;48.272;10.794;2023-02-03T11:18:24;96704.53;;;6.14;66.53
10978;BME280;5542;48.272;10.794;2023-02-03T11:20:52;96705.16;;;6.16;66.45
10978;BME280;5542;48.272;10.794;2023-02-03T11:23:19;96703.00;;;6.20;67.17
10978;BME280;5542;48.272;10.794;2023-02-03T11:25:46;96725.72;;;6.19;67.54
10978;BME280;5542;48.272;10.794;2023-02-03T11:28:13;96719.28;;;6.07;67.79
10978;BME280;5542;48.272;10.794;2023-02-03T11:30:39;96712.84;;;5.95;68.90
10978;BME280;5542;48.272;10.794;2023-02-03T11:33:15;96706.44;;;6.20;68.64
10978;BME280;5542;48.272;10.794;2023-02-03T11:35:54;96701.69;;;6.24;68.48
10978;BME280;5542;48.272;10.794;2023-02-03T11:38:29;96685.09;;;6.31;68.90
10978;BME280;5542;48.272;10.794;2023-02-03T11:41:00;96667.53;;;6.25;69.60
10978;BME280;5542;48.272;10.794;2023-02-03T11:43:27;96676.81;;;6.28;69.82
10978;BME280;5542;48.272;10.794;2023-02-03T11:45:59;96650.31;;;6.31;70.70
10978;BME280;5542;48.272;10.794;2023-02-03T11:48:30;96635.16;;;6.11;70.95
10978;BME280;5542;48.272;10.794;2023-02-03T11:51:12;96629.97;;;5.88;71.76
10978;BME280;5542;48.272;10.794;2023-02-03T11:53:56;96654.97;;;5.83;72.16
10978;BME280;5542;48.272;10.794;2023-02-03T11:56:31;96644.44;;;5.76;71.86
10978;BME280;5542;48.272;10.794;2023-02-03T11:59:24;96645.78;;;5.95;71.68
10978;BME280;5542;48.272;10.794;2023-02-03T12:02:29;96633.81;;;6.01;70.54
10978;BME280;5542;48.272;10.794;2023-02-03T12:05:11;96639.03;;;6.01;70.89
10978;BME280;5542;48.272;10.794;2023-02-03T12:07:51;96650.34;;;5.93;70.96
10978;BME280;5542;48.272;10.794;2023-02-03T12:10:33;96640.22;;;5.98;71.74
10978;BME280;5542;48.272;10.794;2023-02-03T12:13:09;96646.97;;;6.07;71.03
10978;BME280;5542;48.272;10.794;2023-02-03T12:15:54;96633.22;;;6.13;69.50
10978;BME280;5542;48.272;10.794;2023-02-03T12:18:40;96632.75;;;6.25;69.20
10978;BME280;5542;48.272;10.794;2023-02-03T12:21:25;96630.06;;;6.18;68.67
10978;BME280;5542;48.272;10.794;2023-02-03T12:23:59;96625.19;;;6.15;68.91
10978;BME280;5542;48.272;10.794;2023-02-03T12:26:34;96628.06;;;6.20;68.97
10978;BME280;5542;48.272;10.794;2023-02-03T12:29:08;96619.97;;;6.15;68.46
10978;BME280;5542;48.272;10.794;2023-02-03T12:31:39;96614.41;;;6.18;68.54
10978;BME280;5542;48.272;10.794;2023-02-03T12:34:14;96610.44;;;6.22;67.35
10978;BME280;5542;48.272;10.794;2023-02-03T12:36:45;96617.75;;;6.27;67.59
10978;BME280;5542;48.272;10.794;2023-02-03T12:39:19;96605.75;;;6.32;67.69
10978;BME280;5542;48.272;10.794;2023-02-03T12:41:53;96592.44;;;6.27;67.83
10978;BME280;5542;48.272;10.794;2023-02-03T12:44:25;96583.22;;;6.31;67.61
10978;BME280;5542;48.272;10.794;2023-02-03T12:46:59;96559.44;;;6.26;67.66
10978;BME280;5542;48.272;10.794;2023-02-03T12:49:37;96563.69;;;6.27;67.89
10978;BME280;5542;48.272;10.794;2023-02-03T12:52:20;96550.44;;;6.29;67.28
10978;BME280;5542;48.272;10.794;2023-02-03T12:54:55;96551.97;;;6.38;66.29
10978;BME280;5542;48.272;10.794;2023-02-03T12:57:28;96541.69;;;6.22;66.66
10978;BME280;5542;48.272;10.794;2023-02-03T13:00:04;96542.53;;;6.22;66.78
10978;BME280;5542;48.272;10.794;2023-02-03T13:02:38;96539.19;;;6.28;66.32
10978;BME280;5542;48.272;10.794;2023-02-03T13:05:17;96536.09;;;6.39;66.32
10978;BME280;5542;48.272;10.794;2023-02-03T13:07:48;96526.13;;;6.28;65.85
10978;BME280;5542;48.272;10.794;2023-02-03T13:10:22;96525.59;;;6.18;66.02
10978;BME280;5542;48.272;10.794;2023-02-03T13:12:55;96527.19;;;6.19;65.65
10978;BME280;5542;48.272;10.794;2023-02-03T13:15:26;96531.63;;;6.19;66.12
10978;BME280;5542;48.272;10.794;2023-02-03T13:17:57;96533.75;;;6.30;65.49
10978;BME280;5542;48.272;10.794;2023-02-03T13:20:27;96532.22;;;6.35;65.25
10978;BME280;5542;48.272;10.794;2023-02-03T13:22:55;96532.59;;;6.32;64.92
10978;BME280;5542;48.272;10.794;2023-02-03T13:25:26;96523.13;;;6.31;65.34
10978;BME280;5542;48.272;10.794;2023-02-03T13:28:08;96525.31;;;6.28;65.54
10978;BME280;5542;48.272;10.794;2023-02-03T13:30:51;96518.19;;;6.36;65.27